createdAt,value
2019-06-07T00:00:30.751Z,5.77
2019-06-07T00:02:40.248Z,5.07
2019-06-07T00:05:10.000Z,7.47
2019-06-07T00:07:39.239Z,6.43
2019-06-07T00:10:09.431Z,5.57
2019-06-07T00:12:38.163Z,5.87
2019-06-07T00:15:12.937Z,6.47
2019-06-07T00:17:37.533Z,5.37
2019-06-07T00:20:13.873Z,5.87
2019-06-07T00:22:39.694Z,5.63
2019-06-07T00:25:12.414Z,7.17
2019-06-07T00:27:39.574Z,7.97
2019-06-07T00:30:33.266Z,5.00
2019-06-07T00:32:40.475Z,5.53
2019-06-07T00:35:09.332Z,5.93
2019-06-07T00:37:38.025Z,5.43
2019-06-07T00:40:16.245Z,7.67
2019-06-07T00:42:37.520Z,7.17
2019-06-07T00:45:07.072Z,6.00
2019-06-07T00:47:35.669Z,5.37
2019-06-07T00:50:05.024Z,4.80
2019-06-07T00:55:07.592Z,5.27
2019-06-07T00:57:36.045Z,7.07
2019-06-07T01:00:07.880Z,6.47
2019-06-07T01:02:36.482Z,5.77
2019-06-07T01:05:07.019Z,6.00
2019-06-07T01:07:35.628Z,8.90
2019-06-07T01:10:06.876Z,5.80
2019-06-07T01:12:35.381Z,5.97
2019-06-07T01:15:05.267Z,5.67
2019-06-07T01:17:43.861Z,5.20
2019-06-07T01:20:09.380Z,6.53
2019-06-07T01:22:37.886Z,5.30
2019-06-07T01:25:09.173Z,6.17
2019-06-07T01:27:37.728Z,7.50
2019-06-07T01:30:10.963Z,5.87
2019-06-07T01:32:39.556Z,5.67
2019-06-07T01:35:08.616Z,5.73
2019-06-07T01:37:37.115Z,5.93
2019-06-07T01:40:08.600Z,5.00
2019-06-07T01:42:37.184Z,5.50
2019-06-07T01:45:09.944Z,6.07
2019-06-07T01:47:38.577Z,5.63
2019-06-07T01:50:09.197Z,7.03
2019-06-07T01:52:37.795Z,5.80
2019-06-07T01:55:07.158Z,7.53
2019-06-07T01:57:47.576Z,6.80
2019-06-07T02:00:07.057Z,5.47
2019-06-07T02:02:35.650Z,5.83
2019-06-07T02:05:08.141Z,5.47
2019-06-07T02:07:36.898Z,5.37
2019-06-07T02:10:09.139Z,6.10
2019-06-07T02:12:43.175Z,6.07
2019-06-07T02:15:09.327Z,6.33
2019-06-07T02:17:38.319Z,4.80
2019-06-07T02:20:07.651Z,8.97
2019-06-07T02:22:36.244Z,5.87
2019-06-07T02:25:35.085Z,5.43
2019-06-07T02:27:37.037Z,6.17
2019-06-07T02:30:35.381Z,6.23
2019-06-07T02:32:37.834Z,5.80
2019-06-07T02:35:06.955Z,7.07
2019-06-07T02:37:36.978Z,6.70
2019-06-07T02:40:07.603Z,6.37
2019-06-07T02:42:42.214Z,5.17
2019-06-07T02:45:10.719Z,5.27
2019-06-07T02:47:40.010Z,6.07
2019-06-07T02:50:11.540Z,5.83
2019-06-07T02:52:41.628Z,7.17
2019-06-07T02:55:11.791Z,6.00
2019-06-07T02:57:42.110Z,6.67
2019-06-07T03:00:47.487Z,6.00
2019-06-07T03:02:43.504Z,6.00
2019-06-07T03:05:12.665Z,6.30
2019-06-07T03:07:44.999Z,6.37
2019-06-07T03:10:13.363Z,5.70
2019-06-07T03:12:44.544Z,5.73
2019-06-07T03:15:32.185Z,5.67
2019-06-07T03:17:46.736Z,7.37
2019-06-07T03:20:17.050Z,6.73
2019-06-07T03:22:48.270Z,6.80
2019-06-07T03:28:08.295Z,6.87
2019-06-07T03:30:52.204Z,12.50
2019-06-07T03:33:07.176Z,5.80
2019-06-07T03:35:37.441Z,6.60
2019-06-07T03:38:05.919Z,5.93
2019-06-07T03:40:39.623Z,6.80
2019-06-07T03:43:04.661Z,7.43
2019-06-07T03:45:36.016Z,7.13
2019-06-07T03:48:03.483Z,6.97
2019-06-07T03:50:35.930Z,6.97
2019-06-07T03:53:02.299Z,6.83
2019-06-07T03:55:34.883Z,7.70
2019-06-07T03:58:30.640Z,9.03
2019-06-07T04:00:34.101Z,6.93
2019-06-07T04:03:01.619Z,6.23
2019-06-07T04:05:32.911Z,6.73
2019-06-07T04:08:00.373Z,6.97
2019-06-07T04:10:52.040Z,6.20
2019-06-07T04:12:59.168Z,6.20
2019-06-07T04:15:28.102Z,7.40
2019-06-07T04:18:01.788Z,6.97
2019-06-07T04:20:29.195Z,7.10
2019-06-07T04:22:57.222Z,6.73
2019-06-07T04:25:26.035Z,8.43
2019-06-07T04:27:54.522Z,8.37
2019-06-07T04:30:39.485Z,6.87
2019-06-07T04:33:08.144Z,6.83
2019-06-07T04:35:40.030Z,8.07
2019-06-07T04:38:13.400Z,8.63
2019-06-07T04:40:43.118Z,8.97
2019-06-07T04:43:12.348Z,6.47
2019-06-07T04:45:50.343Z,7.80
2019-06-07T04:48:11.584Z,7.10
2019-06-07T04:50:43.645Z,9.67
2019-06-07T04:53:10.510Z,6.40
2019-06-07T04:55:41.620Z,7.97
2019-06-07T04:58:09.231Z,9.27
2019-06-07T05:01:01.470Z,9.27
2019-06-07T05:03:08.171Z,9.87
2019-06-07T05:05:40.880Z,8.33
2019-06-07T05:08:07.864Z,7.80
2019-06-07T05:10:38.775Z,9.80
2019-06-07T05:13:07.379Z,11.10
2019-06-07T05:15:38.986Z,10.80
2019-06-07T05:18:06.159Z,8.60
2019-06-07T05:20:36.113Z,9.40
2019-06-07T05:23:04.865Z,11.97
2019-06-07T05:25:35.425Z,8.77
2019-06-07T05:28:03.775Z,9.83
2019-06-07T05:33:09.149Z,9.27
2019-06-07T05:35:41.365Z,8.60
2019-06-07T05:38:08.542Z,11.23
2019-06-07T05:40:42.952Z,9.77
2019-06-07T05:43:27.286Z,10.20
2019-06-07T05:45:55.799Z,13.80
2019-06-07T05:48:24.397Z,9.63
2019-06-07T05:50:56.793Z,10.87
2019-06-07T05:53:23.171Z,9.23
2019-06-07T05:55:51.727Z,10.83
2019-06-07T05:58:20.244Z,12.97
2019-06-07T06:00:48.894Z,8.40
2019-06-07T06:03:17.614Z,11.67
2019-06-07T06:05:54.579Z,14.87
2019-06-07T06:08:18.012Z,9.83
2019-06-07T06:10:48.632Z,9.87
2019-06-07T06:13:16.718Z,11.77
2019-06-07T06:15:58.519Z,9.37
2019-06-07T06:18:15.443Z,11.00
2019-06-07T06:23:14.268Z,23.30
2019-06-07T06:25:52.541Z,9.17
2019-06-07T06:28:15.756Z,10.43
2019-06-07T06:30:47.286Z,14.90
2019-06-07T06:33:30.720Z,11.73
2019-06-07T06:35:47.485Z,13.33
2019-06-07T06:38:14.391Z,11.57
2019-06-07T06:40:46.295Z,10.83
2019-06-07T06:43:13.155Z,11.73
2019-06-07T06:45:42.928Z,10.43
2019-06-07T06:48:12.265Z,11.27
2019-06-07T06:50:41.123Z,11.73
2019-06-07T06:53:09.745Z,12.43
2019-06-07T06:55:39.081Z,10.80
2019-06-07T06:58:07.641Z,13.20
2019-06-07T07:00:53.541Z,10.57
2019-06-07T07:03:56.528Z,11.83
2019-06-07T07:05:50.840Z,11.23
2019-06-07T07:08:17.984Z,9.37
2019-06-07T07:10:51.134Z,7.43
2019-06-07T07:13:17.359Z,3.80
2019-06-07T07:15:50.126Z,5.30
2019-06-07T07:18:16.226Z,4.43
2019-06-07T07:20:45.876Z,5.50
2019-06-07T07:23:15.146Z,6.60
2019-06-07T07:25:50.592Z,3.53
2019-06-07T07:28:14.154Z,3.70
2019-06-07T07:30:54.859Z,3.40
2019-06-07T07:33:20.794Z,3.47
2019-06-07T07:36:10.879Z,4.23
2019-06-07T07:38:20.264Z,4.23
2019-06-07T07:41:01.863Z,4.50
2019-06-07T07:43:19.050Z,7.93
2019-06-07T07:45:55.012Z,6.70
2019-06-07T07:48:18.391Z,4.33
2019-06-07T07:50:49.737Z,4.07
2019-06-07T07:53:17.711Z,4.50
2019-06-07T07:55:51.559Z,5.67
2019-06-07T07:58:16.810Z,5.40
2019-06-07T08:01:00.358Z,6.03
2019-06-07T08:03:15.622Z,6.13
2019-06-07T08:05:45.714Z,7.17
2019-06-07T08:08:15.005Z,5.07
2019-06-07T08:10:43.518Z,3.13
2019-06-07T08:13:24.537Z,3.07
2019-06-07T08:15:42.418Z,5.83
2019-06-07T08:18:10.970Z,4.13
2019-06-07T08:20:39.574Z,3.20
2019-06-07T08:23:08.269Z,4.40
2019-06-07T08:25:36.838Z,2.60
2019-06-07T08:28:11.387Z,3.50
2019-06-07T08:30:52.349Z,5.43
2019-06-07T08:33:25.460Z,4.17
2019-06-07T08:36:05.909Z,4.93
2019-06-07T08:38:33.964Z,3.83
2019-06-07T08:40:41.124Z,5.07
2019-06-07T08:43:19.500Z,4.23
2019-06-07T08:45:40.072Z,4.80
2019-06-07T08:48:26.578Z,3.13
2019-06-07T08:50:39.014Z,3.67
2019-06-07T08:53:12.119Z,3.30
2019-06-07T08:55:37.926Z,2.90
2019-06-07T08:58:08.758Z,3.70
2019-06-07T09:00:46.903Z,3.23
2019-06-07T09:03:07.722Z,3.20
2019-06-07T09:05:36.329Z,6.77
2019-06-07T09:08:28.594Z,3.43
2019-06-07T09:10:35.571Z,6.47
2019-06-07T09:13:10.969Z,3.70
2019-06-07T09:15:34.686Z,6.23
2019-06-07T09:18:37.799Z,7.17
2019-06-07T09:20:48.476Z,4.40
2019-06-07T09:23:17.980Z,3.13
2019-06-07T09:25:57.248Z,5.77
2019-06-07T09:28:20.266Z,6.20
2019-06-07T09:30:47.636Z,5.87
2019-06-07T09:33:16.179Z,3.43
2019-06-07T09:35:44.885Z,3.47
2019-06-07T09:38:24.974Z,3.20
2019-06-07T09:40:43.807Z,3.67
2019-06-07T09:43:59.839Z,4.43
2019-06-07T09:45:43.354Z,4.57
2019-06-07T09:48:16.019Z,6.17
2019-06-07T09:50:42.265Z,4.60
2019-06-07T09:53:21.776Z,5.80
2019-06-07T09:55:41.360Z,3.03
2019-06-07T09:58:48.665Z,3.90
2019-06-07T10:00:42.319Z,5.53
2019-06-07T10:03:20.188Z,3.00
2019-06-07T10:05:41.763Z,5.00
2019-06-07T10:08:54.249Z,5.83
2019-06-07T10:10:42.912Z,4.57
2019-06-07T10:13:11.027Z,3.90
2019-06-07T10:15:39.674Z,3.53
2019-06-07T10:18:09.236Z,6.47
2019-06-07T10:20:38.210Z,5.07
2019-06-07T10:23:09.971Z,7.47
2019-06-07T10:25:38.829Z,3.07
2019-06-07T10:28:08.204Z,5.37
2019-06-07T10:30:37.014Z,4.00
2019-06-07T10:33:06.886Z,3.33
2019-06-07T10:35:35.844Z,4.53
2019-06-07T10:38:04.672Z,4.50
2019-06-07T10:40:33.346Z,5.30
2019-06-07T10:43:02.974Z,4.03
2019-06-07T10:45:31.660Z,3.43
2019-06-07T10:48:01.401Z,3.23
2019-06-07T10:50:30.221Z,4.23
2019-06-07T10:52:58.746Z,3.40
2019-06-07T10:55:27.259Z,3.60
2019-06-07T10:57:55.806Z,4.67
2019-06-07T11:00:25.347Z,3.97
2019-06-07T11:02:55.292Z,3.90
2019-06-07T11:05:24.053Z,3.57
2019-06-07T11:07:52.709Z,4.97
2019-06-07T11:10:21.987Z,4.33
2019-06-07T11:12:50.692Z,4.57
2019-06-07T11:15:19.703Z,3.57
2019-06-07T11:17:51.949Z,5.50
2019-06-07T11:20:21.223Z,3.57
2019-06-07T11:22:59.085Z,4.60
2019-06-07T11:25:36.260Z,4.03
2019-06-07T11:28:08.402Z,4.80
2019-06-07T11:30:42.924Z,2.83
2019-06-07T11:36:11.143Z,4.97
2019-06-07T11:39:01.506Z,5.50
2019-06-07T11:41:36.365Z,3.93
2019-06-07T11:44:06.783Z,3.57
2019-06-07T11:46:35.445Z,5.33
2019-06-07T11:49:06.304Z,4.73
2019-06-07T11:51:35.023Z,3.00
2019-06-07T11:54:03.568Z,5.13
2019-06-07T11:56:32.164Z,3.60
2019-06-07T11:59:01.287Z,4.53
2019-06-07T12:01:32.754Z,3.37
2019-06-07T12:04:01.267Z,4.77
2019-06-07T12:06:29.823Z,5.43
2019-06-07T12:08:58.490Z,6.57
2019-06-07T12:11:27.090Z,4.17
2019-06-07T12:13:55.656Z,4.53
2019-06-07T12:16:24.342Z,2.73
2019-06-07T12:18:52.877Z,3.40
2019-06-07T12:21:21.375Z,3.00
2019-06-07T12:23:49.946Z,5.07
2019-06-07T12:26:18.717Z,3.57
2019-06-07T12:28:51.104Z,6.27
2019-06-07T12:31:23.143Z,4.17
2019-06-07T12:33:54.500Z,6.30
2019-06-07T12:54:35.917Z,4.10
2019-06-07T12:57:04.484Z,4.07
2019-06-07T12:59:32.993Z,4.55
2019-06-07T13:02:02.558Z,3.53
2019-06-07T13:04:31.170Z,3.50
2019-06-07T13:06:59.812Z,4.03
2019-06-07T13:09:28.325Z,3.60
2019-06-07T13:11:56.800Z,3.98
2019-06-07T13:14:25.290Z,3.33
2019-06-07T13:16:53.814Z,4.10
2019-06-07T13:19:22.292Z,3.75
2019-06-07T13:21:50.791Z,3.95
2019-06-07T13:24:20.815Z,4.00
2019-06-07T13:26:49.484Z,3.37
2019-06-07T13:29:18.743Z,3.57
2019-06-07T13:31:47.369Z,3.17
2019-06-07T13:34:16.177Z,2.67
2019-06-07T13:36:44.804Z,4.50
2019-06-07T13:39:13.460Z,2.60
2019-06-07T13:41:43.311Z,6.85
2019-06-07T13:44:11.921Z,4.07
2019-06-07T13:46:40.417Z,4.22
2019-06-07T13:49:08.944Z,4.20
2019-06-07T13:51:37.528Z,4.28
2019-06-07T13:54:06.116Z,3.90
2019-06-07T13:56:34.610Z,5.65
2019-06-07T13:59:03.282Z,7.40
2019-06-07T14:01:31.803Z,5.47
2019-06-07T14:04:00.280Z,4.03
2019-06-07T14:06:30.301Z,3.45
2019-06-07T14:08:58.890Z,5.20
2019-06-07T14:11:27.867Z,4.08
2019-06-07T14:13:56.458Z,4.87
2019-06-07T14:16:26.177Z,5.20
2019-06-07T14:18:54.826Z,6.83
2019-06-07T14:21:24.509Z,5.75
2019-06-07T14:23:53.123Z,3.92
2019-06-07T14:26:21.637Z,5.80
2019-06-07T14:28:50.171Z,6.70
2019-06-07T14:31:18.673Z,9.18
2019-06-07T14:33:47.182Z,9.50
2019-06-07T14:36:15.678Z,3.57
2019-06-07T14:38:44.268Z,4.37
2019-06-07T14:41:12.774Z,2.67
2019-06-07T14:43:41.541Z,2.72
2019-06-07T14:46:10.331Z,3.98
2019-06-07T14:48:38.924Z,4.58
2019-06-07T14:51:07.401Z,4.58
2019-06-07T14:53:35.901Z,3.25
2019-06-07T14:56:04.640Z,4.75
2019-06-07T14:58:38.070Z,5.58
2019-06-07T15:01:03.353Z,4.12
2019-06-07T15:03:32.731Z,6.67
2019-06-07T15:06:01.471Z,3.50
2019-06-07T15:08:30.669Z,5.00
2019-06-07T15:10:59.278Z,3.55
2019-06-07T15:13:29.340Z,4.28
2019-06-07T15:15:58.005Z,5.97
2019-06-07T15:18:27.625Z,3.58
2019-06-07T15:20:56.181Z,4.90
2019-06-07T15:23:24.678Z,3.87
2019-06-07T15:25:53.177Z,6.08
2019-06-07T15:28:21.647Z,3.92
2019-06-07T15:30:50.201Z,4.27
2019-06-07T15:33:21.575Z,4.83
2019-06-07T15:35:50.068Z,4.47
2019-06-07T15:38:18.591Z,5.80
2019-06-07T15:40:47.129Z,5.70
2019-06-07T15:43:15.666Z,7.25
2019-06-07T15:45:44.780Z,4.53
2019-06-07T15:48:13.555Z,5.87
2019-06-07T15:50:42.080Z,8.40
2019-06-07T15:53:10.610Z,3.87
2019-06-07T15:55:43.879Z,5.23
2019-06-07T15:58:09.371Z,4.27
2019-06-07T16:00:40.553Z,5.47
2019-06-07T16:03:08.195Z,6.60
2019-06-07T16:05:36.664Z,4.97
2019-06-07T16:08:05.297Z,5.47
2019-06-07T16:10:34.637Z,4.87
2019-06-07T16:13:03.275Z,5.20
2019-06-07T16:15:32.963Z,7.17
2019-06-07T16:18:01.668Z,4.37
2019-06-07T16:20:30.306Z,7.27
2019-06-07T16:22:58.814Z,5.00
2019-06-07T16:25:27.318Z,4.83
2019-06-07T16:27:55.879Z,5.30
2019-06-07T16:30:24.958Z,4.50
2019-06-07T16:32:53.553Z,7.10
2019-06-07T16:35:22.114Z,5.47
2019-06-07T16:37:52.339Z,5.70
2019-06-07T16:40:21.362Z,9.37
2019-06-07T16:42:49.868Z,6.33
2019-06-07T16:45:18.934Z,8.17
2019-06-07T16:47:48.460Z,7.23
2019-06-07T16:50:17.911Z,8.27
2019-06-07T16:52:47.029Z,4.57
2019-06-07T16:55:20.075Z,4.57
2019-06-07T16:57:50.182Z,5.00
2019-06-07T17:00:20.263Z,6.00
2019-06-07T17:02:48.953Z,3.73
2019-06-07T17:05:17.689Z,5.80
2019-06-07T17:07:46.868Z,6.80
2019-06-07T17:10:16.062Z,4.47
2019-06-07T17:12:45.055Z,3.83
2019-06-07T17:15:15.643Z,4.47
2019-06-07T17:17:45.198Z,4.97
2019-06-07T17:20:14.269Z,4.50
2019-06-07T17:22:44.033Z,4.10
2019-06-07T17:25:13.656Z,4.37
2019-06-07T17:27:42.205Z,7.57
2019-06-07T17:30:12.055Z,5.00
2019-06-07T17:32:53.229Z,4.03
2019-06-07T17:35:11.181Z,6.30
2019-06-07T17:37:41.639Z,8.70
2019-06-07T17:40:10.502Z,5.87
2019-06-07T17:42:38.992Z,7.57
2019-06-07T17:45:12.132Z,4.77
2019-06-07T17:47:41.639Z,4.10
2019-06-07T17:50:10.867Z,4.57
2019-06-07T17:52:39.389Z,7.67
2019-06-07T17:55:08.904Z,3.77
2019-06-07T17:57:37.663Z,4.87
2019-06-07T18:00:27.651Z,4.33
2019-06-07T18:02:38.122Z,3.80
2019-06-07T18:05:07.153Z,3.53
2019-06-07T18:07:36.087Z,4.03
2019-06-07T18:10:06.663Z,2.60
2019-06-07T18:12:35.177Z,5.37
2019-06-07T18:15:05.048Z,4.03
2019-06-07T18:17:34.750Z,3.50
2019-06-07T18:20:05.235Z,6.13
2019-06-07T18:22:33.730Z,3.00
2019-06-07T18:25:02.216Z,6.80
2019-06-07T18:27:30.727Z,5.90
2019-06-07T18:29:59.246Z,4.63
2019-06-07T18:32:27.784Z,3.40
2019-06-07T18:34:56.260Z,4.47
2019-06-07T18:37:24.839Z,3.83
2019-06-07T18:39:53.356Z,3.03
2019-06-07T18:42:21.868Z,3.43
2019-06-07T18:44:51.027Z,5.43
2019-06-07T18:47:19.566Z,4.97
2019-06-07T18:49:49.333Z,5.10
2019-06-07T18:52:19.697Z,4.60
2019-06-07T18:54:48.833Z,3.27
2019-06-07T18:57:17.486Z,3.80
2019-06-07T18:59:46.072Z,3.47
2019-06-07T19:02:14.555Z,3.40
2019-06-07T19:04:43.079Z,6.20
2019-06-07T19:07:11.644Z,5.83
2019-06-07T19:09:40.289Z,3.73
2019-06-07T19:12:08.792Z,3.73
2019-06-07T19:14:37.585Z,6.10
2019-06-07T19:17:06.171Z,4.37
2019-06-07T19:19:34.674Z,3.10
2019-06-07T19:22:03.265Z,3.27
2019-06-07T19:24:31.772Z,3.43
2019-06-07T19:27:00.818Z,4.63
2019-06-07T19:29:33.443Z,5.70
2019-06-07T19:31:59.617Z,8.03
2019-06-07T19:34:28.098Z,5.00
2019-06-07T19:36:57.738Z,4.10
2019-06-07T19:39:26.332Z,4.37
2019-06-07T19:41:55.882Z,5.30
2019-06-07T19:44:24.433Z,4.30
2019-06-07T19:46:54.261Z,4.37
2019-06-07T19:49:22.770Z,4.87
2019-06-07T19:51:51.283Z,3.40
2019-06-07T19:54:19.773Z,6.07
2019-06-07T19:56:48.292Z,4.47
2019-06-07T19:59:16.788Z,7.67
2019-06-07T20:01:45.435Z,5.77
2019-06-07T20:04:16.470Z,3.47
2019-06-07T20:06:46.558Z,6.27
2019-06-07T20:09:15.072Z,3.37
2019-06-07T20:11:43.628Z,7.43
2019-06-07T20:14:12.215Z,5.53
2019-06-07T20:16:40.808Z,5.07
2019-06-07T20:19:09.450Z,2.63
2019-06-07T20:21:37.971Z,3.17
2019-06-07T20:24:24.757Z,4.27
2019-06-07T20:26:36.820Z,2.57
2019-06-07T20:29:24.872Z,4.63
2019-06-07T20:31:38.674Z,4.63
2019-06-07T20:34:07.157Z,3.63
2019-06-07T20:36:35.740Z,5.50
2019-06-07T20:39:12.756Z,5.53
2019-06-07T20:41:36.960Z,3.03
2019-06-07T20:44:05.904Z,4.57
2019-06-07T20:46:34.471Z,2.70
2019-06-07T20:49:04.915Z,3.87
2019-06-07T20:51:33.191Z,10.33
2019-06-07T20:54:02.549Z,3.47
2019-06-07T20:56:31.137Z,3.97
2019-06-07T20:59:00.470Z,2.60
2019-06-07T21:01:29.014Z,3.53
2019-06-07T21:03:58.880Z,3.33
2019-06-07T21:06:27.454Z,2.60
2019-06-07T21:08:55.995Z,3.17
2019-06-07T21:11:24.953Z,3.53
2019-06-07T21:13:53.521Z,4.20
2019-06-07T21:16:22.051Z,3.47
2019-06-07T21:18:50.534Z,2.20
2019-06-07T21:21:19.154Z,2.47
2019-06-07T21:23:47.737Z,4.90
2019-06-07T21:26:16.204Z,14.33
2019-06-07T21:28:44.725Z,4.33
2019-06-07T21:31:13.502Z,2.90
2019-06-07T21:33:41.969Z,2.17
2019-06-07T21:36:11.781Z,3.73
2019-06-07T21:38:40.371Z,5.73
2019-06-07T21:41:09.028Z,3.47
2019-06-07T21:43:40.438Z,4.57
2019-06-07T21:46:14.934Z,3.70
2019-06-07T21:48:39.325Z,4.07
2019-06-07T21:51:08.645Z,4.77
2019-06-07T21:53:37.174Z,2.33
2019-06-07T21:56:07.045Z,3.83
2019-06-07T21:58:35.575Z,1.93
2019-06-07T22:01:08.455Z,2.67
2019-06-07T22:03:37.393Z,2.83
2019-06-07T22:06:06.307Z,5.80
2019-06-07T22:08:36.139Z,1.53
2019-06-07T22:11:06.056Z,2.00
2019-06-07T22:13:34.705Z,1.73
2019-06-07T22:16:04.039Z,1.60
2019-06-07T22:18:32.622Z,4.57
2019-06-07T22:21:01.142Z,6.70
2019-06-07T22:23:29.595Z,4.10
2019-06-07T22:25:58.077Z,4.30
2019-06-07T22:28:28.216Z,7.30
2019-06-07T22:30:56.735Z,4.27
2019-06-07T22:33:25.243Z,3.30
2019-06-07T22:35:53.900Z,6.37
2019-06-07T22:38:22.410Z,3.90
2019-06-07T22:40:50.929Z,1.83
2019-06-07T22:43:19.469Z,2.80
2019-06-07T22:45:48.028Z,5.40
2019-06-07T22:48:17.555Z,2.70
2019-06-07T22:50:46.124Z,2.03
2019-06-07T22:53:15.549Z,3.50
2019-06-07T22:55:46.330Z,2.60
2019-06-07T22:58:15.974Z,3.00
2019-06-07T23:00:44.683Z,1.73
2019-06-07T23:03:14.897Z,1.97
2019-06-07T23:05:45.273Z,3.63
2019-06-07T23:08:14.913Z,2.40
2019-06-07T23:10:45.257Z,3.03
2019-06-07T23:14:09.140Z,6.83
2019-06-07T23:16:54.366Z,4.10
2019-06-07T23:19:07.954Z,3.97
2019-06-07T23:21:36.472Z,1.53
2019-06-07T23:24:05.052Z,1.57
2019-06-07T23:26:33.636Z,4.93
2019-06-07T23:29:02.225Z,4.90
2019-06-07T23:32:24.491Z,3.37
2019-06-07T23:34:52.991Z,3.67
2019-06-07T23:37:21.494Z,1.83
2019-06-07T23:39:49.980Z,2.13
2019-06-07T23:42:19.711Z,1.50
2019-06-07T23:44:48.251Z,1.93
2019-06-07T23:47:17.670Z,1.67
2019-06-07T23:49:46.935Z,2.93
2019-06-07T23:52:15.610Z,2.27
2019-06-07T23:54:44.086Z,2.10
2019-06-07T23:57:13.767Z,3.53
2019-06-07T23:59:42.456Z,2.23
